»·PEaware :: ENY3660 KPHX-KSBA

ENY3660 :: KPHX-KSBA

FLIGHT INFORMATION

Flight Status: Arrived
Operator: Unknown
More flights by this operator :: More flights under this callsign
Pilot: Alex K. (14822)
Aircraft: EMBRAER EMB-170/175
(E170)
More flights by this aircraft type
Origin: KPHX Phoenix Sky Harbor Intl
United States
Destination: KSBA Santa Barbara Mun
United States
More flights between these airports :: More routes between these airports
Route: +KEENS2 HRRBR CURIV J212 PSP PORPS PITBL1
File this flight plan on PilotEdge
Remarks:
Altitude:
(Current/Filed)
34,000ft
Speed:
(Current/Filed)
430kts
Departed: 06-Feb-19 04:57 PM
Arrived: 06-Feb-19 06:05 PM
Distance/Time
Traveled:
394nm/1:08
Distance/Time
To Go:
Arrived

Flight Plot

Page will automatically refresh every two minutes.

Flight plan parsing failed; only flown route is shown


Map Options




Map Legend


Flown Route
Filed Route
Departure Airport
Arrival Airport
Navaid (VOR, NDB)
Fix

Horizontal Profiles

Position Reports

Time Latitude Longitude Heading Altitude Ground
Speed
06-Feb-19 15:58 33.437209 -111.997368 88 1137ft 0kts
06-Feb-19 15:59 33.437209 -111.997368 88 1137ft 0kts
06-Feb-19 16:00 33.437209 -111.997368 88 1137ft 0kts
06-Feb-19 16:01 33.437209 -111.997368 88 1137ft 0kts
06-Feb-19 16:02 33.437209 -111.997368 88 1137ft 0kts
06-Feb-19 16:03 33.437209 -111.997368 88 1137ft 0kts
06-Feb-19 16:04 33.437209 -111.997368 88 1137ft 0kts
06-Feb-19 16:05 33.437209 -111.997368 88 1137ft 0kts
06-Feb-19 16:06 33.437209 -111.997368 88 1137ft 0kts
06-Feb-19 16:07 33.437209 -111.997368 88 1137ft 0kts
06-Feb-19 16:08 33.437209 -111.997368 88 1137ft 0kts
06-Feb-19 16:09 33.437209 -111.997368 88 1137ft 0kts
06-Feb-19 16:10 33.437209 -111.997368 88 1137ft 0kts
06-Feb-19 16:11 33.437209 -111.997368 88 1137ft 0kts
06-Feb-19 16:12 33.437209 -111.997368 88 1137ft 0kts
06-Feb-19 16:13 33.437209 -111.997368 88 1137ft 0kts
06-Feb-19 16:14 33.437209 -111.997368 88 1137ft 0kts
06-Feb-19 16:15 33.437209 -111.997368 88 1137ft 0kts
06-Feb-19 16:16 33.437209 -111.997368 88 1137ft 0kts
06-Feb-19 16:17 33.437209 -111.997368 88 1137ft 0kts
06-Feb-19 16:18 33.437209 -111.997368 88 1137ft 0kts
06-Feb-19 16:19 33.437209 -111.997368 88 1137ft 0kts
06-Feb-19 16:20 33.437209 -111.997368 88 1137ft 0kts
06-Feb-19 16:21 33.437209 -111.997368 88 1137ft 0kts
06-Feb-19 16:22 33.437209 -111.997368 88 1137ft 0kts
06-Feb-19 16:23 33.437209 -111.997368 88 1137ft 0kts
06-Feb-19 16:24 33.437209 -111.997368 88 1137ft 0kts
06-Feb-19 16:25 33.437209 -111.997368 88 1137ft 0kts
06-Feb-19 16:26 33.437209 -111.997368 88 1137ft 0kts
06-Feb-19 16:27 33.437209 -111.997368 88 1137ft 0kts
06-Feb-19 16:28 33.437209 -111.997368 88 1137ft 0kts
06-Feb-19 16:29 33.437209 -111.997368 88 1137ft 0kts
06-Feb-19 16:30 33.437209 -111.997368 88 1137ft 0kts
06-Feb-19 16:31 33.437209 -111.997368 88 1137ft 0kts
06-Feb-19 16:32 33.437209 -111.997368 88 1137ft 0kts
06-Feb-19 16:33 33.437209 -111.997368 88 1137ft 0kts
06-Feb-19 16:34 33.437209 -111.997368 88 1137ft 0kts
06-Feb-19 16:35 33.437209 -111.997368 88 1137ft 0kts
06-Feb-19 16:36 33.437209 -111.997368 88 1137ft 0kts
06-Feb-19 16:37 33.437209 -111.997368 88 1137ft 0kts
06-Feb-19 16:38 33.437209 -111.997368 88 1137ft 0kts
06-Feb-19 16:39 33.437209 -111.997368 88 1137ft 0kts
06-Feb-19 16:40 33.437209 -111.997368 88 1137ft 0kts
06-Feb-19 16:41 33.437209 -111.997368 88 1137ft 0kts
06-Feb-19 16:42 33.437209 -111.997368 88 1137ft 0kts
06-Feb-19 16:43 33.437209 -111.997368 88 1137ft 0kts
06-Feb-19 16:44 33.437209 -111.997368 88 1137ft 0kts
06-Feb-19 16:45 33.437209 -111.997365 88 1137ft 0kts
06-Feb-19 16:46 33.437204 -111.997746 83 1137ft 2kts
06-Feb-19 16:47 33.436896 -111.998060 0 1137ft 0kts
06-Feb-19 16:48 33.436896 -111.998060 0 1137ft 0kts
06-Feb-19 16:49 33.436936 -111.998060 0 1137ft 2kts
06-Feb-19 16:50 33.437258 -111.998364 315 1137ft 0kts
06-Feb-19 16:51 33.438248 -111.998074 357 1137ft 8kts
06-Feb-19 16:52 33.439396 -111.998216 18 1137ft 11kts
06-Feb-19 16:53 33.439692 -111.992201 90 1137ft 18kts
06-Feb-19 16:54 33.439794 -111.991335 43 1137ft 0kts
06-Feb-19 16:55 33.440067 -111.991260 353 1137ft 5kts
06-Feb-19 16:56 33.440827 -112.002448 270 1137ft 115kts
06-Feb-19 16:57 33.440035 -112.044724 248 1654ft 133kts
06-Feb-19 16:58 33.424084 -112.089550 247 2898ft 160kts
06-Feb-19 16:59 33.406610 -112.138080 248 4366ft 162kts
06-Feb-19 17:00 33.390029 -112.188914 251 5468ft 173kts
06-Feb-19 17:01 33.374230 -112.255623 272 6228ft 224kts
06-Feb-19 17:02 33.385700 -112.337400 276 7449ft 257kts
06-Feb-19 17:03 33.414376 -112.417848 290 8407ft 269kts
06-Feb-19 17:04 33.434216 -112.498697 281 9895ft 300kts
06-Feb-19 17:05 33.449510 -112.599115 275 12255ft 314kts
06-Feb-19 17:06 33.452035 -112.705038 269 14958ft 327kts
06-Feb-19 17:07 33.455045 -112.816444 277 17710ft 342kts
06-Feb-19 17:08 33.476200 -112.930696 282 20157ft 357kts
06-Feb-19 17:09 33.499119 -113.048551 281 22353ft 370kts
06-Feb-19 17:10 33.521822 -113.170706 281 24251ft 382kts
06-Feb-19 17:11 33.544999 -113.297391 281 25899ft 393kts
06-Feb-19 17:12 33.568769 -113.426945 281 27345ft 403kts
06-Feb-19 17:13 33.593032 -113.558612 282 28650ft 412kts
06-Feb-19 17:14 33.618246 -113.693856 281 29830ft 420kts
06-Feb-19 17:15 33.643797 -113.832776 281 31015ft 424kts
06-Feb-19 17:16 33.669097 -113.970315 281 32290ft 422kts
06-Feb-19 17:17 33.694244 -114.107430 281 33296ft 421kts
06-Feb-19 17:18 33.719092 -114.244121 281 34105ft 420kts
06-Feb-19 17:19 33.744637 -114.385833 281 34123ft 442kts
06-Feb-19 17:20 33.769863 -114.526516 281 34124ft 442kts
06-Feb-19 17:21 33.782962 -114.664673 271 34128ft 442kts
06-Feb-19 17:22 33.788295 -114.813856 272 34129ft 441kts
06-Feb-19 17:23 33.796387 -114.960189 273 34130ft 440kts
06-Feb-19 17:24 33.804844 -115.107083 273 34130ft 440kts
06-Feb-19 17:25 33.812764 -115.254215 273 34130ft 440kts
06-Feb-19 17:26 33.820514 -115.400528 273 34131ft 440kts
06-Feb-19 17:27 33.828089 -115.547619 273 34132ft 440kts
06-Feb-19 17:28 33.835205 -115.693146 272 34135ft 440kts
06-Feb-19 17:29 33.842248 -115.838736 272 34132ft 440kts
06-Feb-19 17:30 33.848969 -115.978580 272 34127ft 440kts
06-Feb-19 17:31 33.855805 -116.125054 272 34126ft 440kts
06-Feb-19 17:32 33.862395 -116.269272 272 34126ft 439kts
06-Feb-19 17:33 33.869165 -116.413453 274 34131ft 439kts
06-Feb-19 17:34 33.895726 -116.552335 287 34135ft 440kts
06-Feb-19 17:35 33.931074 -116.682992 286 34129ft 439kts
06-Feb-19 17:37 33.965811 -116.825539 285 34113ft 439kts
06-Feb-19 17:38 33.998591 -116.963530 285 34120ft 439kts
06-Feb-19 17:39 34.030332 -117.097729 285 34137ft 439kts
06-Feb-19 17:40 34.063888 -117.238213 285 34153ft 439kts
06-Feb-19 17:41 34.097153 -117.377787 285 33836ft 442kts
06-Feb-19 17:42 34.128559 -117.507676 285 32742ft 441kts
06-Feb-19 17:43 34.161644 -117.645729 285 31866ft 440kts
06-Feb-19 17:44 34.193610 -117.784446 284 31320ft 442kts
06-Feb-19 17:45 34.226142 -117.926142 284 30793ft 443kts
06-Feb-19 17:46 34.258817 -118.068694 284 30324ft 444kts
06-Feb-19 17:47 34.292274 -118.212400 286 29400ft 446kts
06-Feb-19 17:48 34.328577 -118.356099 286 28086ft 448kts
06-Feb-19 17:49 34.363675 -118.497491 285 27063ft 429kts
06-Feb-19 17:50 34.397012 -118.633588 286 25671ft 417kts
06-Feb-19 17:51 34.427876 -118.763224 280 24366ft 409kts
06-Feb-19 17:52 34.418712 -118.895862 255 22689ft 395kts
06-Feb-19 17:53 34.391774 -119.023889 257 20642ft 386kts
06-Feb-19 17:54 34.371250 -119.149053 258 18528ft 369kts
06-Feb-19 17:55 34.351380 -119.267643 258 16490ft 353kts
06-Feb-19 17:56 34.332752 -119.377129 258 14134ft 302kts
06-Feb-19 17:56 34.319196 -119.455743 258 12011ft 280kts
06-Feb-19 17:57 34.327221 -119.541718 311 9201ft 274kts
06-Feb-19 17:59 34.365082 -119.627106 254 6155ft 255kts
06-Feb-19 17:59 34.365674 -119.692000 316 4157ft 240kts
06-Feb-19 18:00 34.414334 -119.730490 314 2473ft 184kts
06-Feb-19 18:01 34.428743 -119.776813 270 1570ft 119kts
06-Feb-19 18:02 34.428305 -119.815493 267 386ft 110kts
06-Feb-19 18:03 34.427653 -119.846867 269 19ft 43kts
06-Feb-19 18:04 34.426502 -119.849342 87 19ft 18kts
06-Feb-19 18:05 34.426672 -119.841091 87 19ft 28kts
06-Feb-19 18:06 34.425127 -119.837252 114 19ft 0kts
06-Feb-19 18:07 34.425127 -119.837252 114 19ft 0kts
06-Feb-19 18:08 34.425127 -119.837252 114 19ft 0kts
06-Feb-19 18:09 34.425127 -119.837252 114 19ft 0kts
06-Feb-19 18:10 34.425127 -119.837252 114 19ft 0kts
06-Feb-19 18:11 34.425127 -119.837252 114 19ft 0kts
06-Feb-19 18:12 34.425127 -119.837252 114 19ft 0kts
06-Feb-19 18:13 34.425127 -119.837252 114 19ft 0kts
06-Feb-19 18:14 34.425127 -119.837252 114 19ft 0kts
06-Feb-19 18:15 34.425127 -119.837252 114 19ft 0kts
06-Feb-19 18:16 34.425127 -119.837252 114 19ft 0kts
06-Feb-19 18:17 34.425127 -119.837252 114 19ft 0kts
06-Feb-19 18:18 34.425127 -119.837252 114 19ft 0kts

Navigation Log

Ident Type
Flight plan parsing failed, navigation log unavailable